Time;durP1;ratioP1;P1;durP2;ratioP2;P2;SDS_P1;SDS_P2;PMS_P1;PMS_P2;Temp;Humidity;BMP_temperature;BMP_pressure;BME280_temperature;BME280_humidity;BME280_pressure;Samples;Min_cycle;Max_cycle;Signal;HPM_P1;HPM_P2
2022/09/18 00:02:30;;;;;;;7.25;3.60;;;;;;;;;;6210643;28;19921;-77
2022/09/18 00:05:35;;;;;;;5.22;3.53;;;;;;;;;;6199740;28;20174;-77
2022/09/18 00:08:37;;;;;;;10.35;4.10;;;;;;;;;;6205293;28;20096;-77
2022/09/18 00:11:43;;;;;;;8.18;3.85;;;;;;;;;;6196830;28;20037;-77
2022/09/18 00:14:44;;;;;;;7.63;4.00;;;;;;;;;;6206250;28;20044;-77
2022/09/18 00:17:46;;;;;;;6.32;3.40;;;;;;;;;;6200529;28;20099;-77
2022/09/18 00:20:48;;;;;;;8.38;3.55;;;;;;;;;;6189558;28;20403;-77
2022/09/18 00:23:54;;;;;;;6.35;3.42;;;;;;;;;;6207476;28;20416;-77
2022/09/18 00:26:56;;;;;;;8.02;3.53;;;;;;;;;;6204588;28;20200;-77
2022/09/18 00:29:57;;;;;;;6.78;3.70;;;;;;;;;;6208367;28;20049;-77
2022/09/18 00:32:59;;;;;;;8.90;3.33;;;;;;;;;;6206182;28;20127;-77
2022/09/18 00:36:03;;;;;;;5.80;3.10;;;;;;;;;;6216361;28;20069;-78
2022/09/18 00:39:05;;;;;;;5.65;3.70;;;;;;;;;;6210621;28;20128;-77
2022/09/18 00:42:11;;;;;;;6.82;3.22;;;;;;;;;;6188962;28;20072;-77
2022/09/18 00:45:13;;;;;;;6.78;3.50;;;;;;;;;;6206257;28;20074;-77
2022/09/18 00:48:15;;;;;;;4.15;2.90;;;;;;;;;;6221596;28;20049;-77
2022/09/18 00:51:17;;;;;;;5.85;2.90;;;;;;;;;;6229047;28;20056;-77
2022/09/18 00:54:51;;;;;;;6.33;2.50;;;;;;;;;;6201061;28;20085;-76
2022/09/18 00:57:55;;;;;;;;;;;;;;;;;;6172230;28;20128;-77
2022/09/18 01:01:00;;;;;;;;;;;;;;;;;;6206857;28;19940;-77
2022/09/18 01:04:02;;;;;;;4.70;2.95;;;;;;;;;;6216122;28;19948;-77
2022/09/18 01:07:29;;;;;;;2.97;2.50;;;;;;;;;;6202730;28;20087;-77
2022/09/18 01:10:38;;;;;;;6.22;2.65;;;;;;;;;;6211507;28;20188;-77
2022/09/18 01:13:48;;;;;;;4.20;2.30;;;;;;;;;;6204009;28;20070;-76
2022/09/18 01:16:58;;;;;;;4.72;2.50;;;;;;;;;;6213496;28;20049;-77
2022/09/18 01:20:34;;;;;;;4.95;2.83;;;;;;;;;;6217172;28;21084;-78
2022/09/18 01:23:53;;;;;;;5.68;2.40;;;;;;;;;;6213782;28;20042;-77
2022/09/18 01:27:05;;;;;;;6.63;2.22;;;;;;;;;;6196022;28;20060;-78
2022/09/18 01:30:10;;;;;;;4.93;2.42;;;;;;;;;;6226514;28;20046;-78
2022/09/18 01:33:27;;;;;;;3.38;2.17;;;;;;;;;;6210130;28;20160;-77
2022/09/18 01:36:33;;;;;;;5.55;2.08;;;;;;;;;;6227578;28;20672;-78
2022/09/18 01:39:46;;;;;;;6.18;2.00;;;;;;;;;;6199798;28;20049;-78
2022/09/18 01:42:51;;;;;;;12.38;3.30;;;;;;;;;;6204782;28;20129;-77
2022/09/18 01:45:58;;;;;;;8.38;2.88;;;;;;;;;;6222126;28;20083;-77
2022/09/18 01:49:09;;;;;;;4.53;2.33;;;;;;;;;;6224916;28;20228;-77
2022/09/18 01:52:24;;;;;;;5.35;2.38;;;;;;;;;;6209789;28;20045;-78
2022/09/18 01:55:29;;;;;;;5.95;2.88;;;;;;;;;;6232013;28;20046;-77
2022/09/18 01:58:33;;;;;;;4.65;2.08;;;;;;;;;;6194064;28;21781;-77
2022/09/18 02:01:39;;;;;;;4.47;2.03;;;;;;;;;;6212275;28;20426;-77
2022/09/18 02:04:44;;;;;;;4.93;2.47;;;;;;;;;;6210383;28;20046;-77
2022/09/18 02:07:59;;;;;;;4.35;2.50;;;;;;;;;;6217314;28;20144;-78
2022/09/18 02:11:20;;;;;;;4.55;2.70;;;;;;;;;;6208136;28;20049;-77
2022/09/18 02:14:34;;;;;;;5.10;2.35;;;;;;;;;;6222144;28;20125;-78
2022/09/18 02:18:04;;;;;;;5.88;2.40;;;;;;;;;;6230950;28;20046;-78
2022/09/18 02:21:17;;;;;;;5.20;2.20;;;;;;;;;;6229779;28;20041;-78
2022/09/18 02:24:23;;;;;;;3.03;2.38;;;;;;;;;;6191231;28;20050;-78
2022/09/18 02:27:25;;;;;;;3.85;2.53;;;;;;;;;;6175213;28;20049;-77
2022/09/18 02:30:28;;;;;;;6.65;2.38;;;;;;;;;;6192796;28;20368;-78
2022/09/18 02:33:36;;;;;;;7.97;2.70;;;;;;;;;;6221874;28;20081;-78
2022/09/18 02:37:02;;;;;;;6.57;2.42;;;;;;;;;;6217612;28;20073;-78
2022/09/18 02:40:29;;;;;;;5.68;2.30;;;;;;;;;;6232629;28;20057;-78
2022/09/18 02:43:40;;;;;;;4.55;2.25;;;;;;;;;;6236945;28;20045;-77
2022/09/18 02:47:20;;;;;;;6.35;3.47;;;;;;;;;;6204394;28;20046;-78
2022/09/18 02:50:40;;;;;;;4.72;2.30;;;;;;;;;;6203250;28;20049;-78
2022/09/18 02:54:10;;;;;;;6.53;2.65;;;;;;;;;;6221545;28;20077;-78
2022/09/18 02:57:20;;;;;;;5.47;2.55;;;;;;;;;;6203888;28;20041;-78
2022/09/18 03:00:24;;;;;;;4.00;2.30;;;;;;;;;;6216076;28;20548;-77
2022/09/18 03:03:29;;;;;;;6.22;2.70;;;;;;;;;;6205550;28;20053;-78
2022/09/18 03:06:35;;;;;;;3.38;2.50;;;;;;;;;;6202262;28;20049;-78
2022/09/18 03:09:37;;;;;;;3.50;1.92;;;;;;;;;;6202088;28;20050;-77
2022/09/18 03:12:39;;;;;;;3.72;2.00;;;;;;;;;;6200751;28;20059;-77
2022/09/18 03:15:41;;;;;;;4.93;2.27;;;;;;;;;;6214826;28;20042;-77
2022/09/18 03:18:43;;;;;;;2.50;2.30;;;;;;;;;;6223080;28;20551;-78
2022/09/18 03:21:45;;;;;;;3.33;2.40;;;;;;;;;;6206618;28;20041;-78
2022/09/18 03:24:47;;;;;;;2.58;2.22;;;;;;;;;;6238463;28;20042;-78
2022/09/18 03:27:54;;;;;;;4.82;2.58;;;;;;;;;;6193860;28;20042;-78
2022/09/18 03:31:04;;;;;;;3.47;2.35;;;;;;;;;;6212884;28;20049;-77
2022/09/18 03:34:07;;;;;;;8.52;2.50;;;;;;;;;;6223165;28;20046;-77
2022/09/18 03:37:09;;;;;;;2.95;2.35;;;;;;;;;;6215267;28;20116;-77
2022/09/18 03:40:11;;;;;;;4.85;2.88;;;;;;;;;;6212342;28;20385;-77
2022/09/18 03:43:14;;;;;;;3.50;2.70;;;;;;;;;;6212594;28;20093;-77
2022/09/18 03:46:22;;;;;;;5.82;2.67;;;;;;;;;;6221570;28;20229;-77
2022/09/18 03:49:27;;;;;;;6.32;2.85;;;;;;;;;;6213701;28;20041;-77
2022/09/18 03:52:29;;;;;;;4.30;2.97;;;;;;;;;;6205784;28;20042;-77
2022/09/18 03:55:40;;;;;;;5.68;3.15;;;;;;;;;;6187783;28;20042;-77
2022/09/18 03:59:16;;;;;;;6.32;2.85;;;;;;;;;;6185381;28;20132;-77
2022/09/18 04:02:24;;;;;;;4.90;2.78;;;;;;;;;;6206410;28;20065;-77
2022/09/18 04:05:47;;;;;;;3.85;2.55;;;;;;;;;;6205734;28;20050;-77
2022/09/18 04:09:27;;;;;;;4.88;2.60;;;;;;;;;;6199286;28;20066;-77
2022/09/18 04:12:29;;;;;;;4.43;2.30;;;;;;;;;;6198574;28;20041;-77
2022/09/18 04:15:44;;;;;;;4.85;2.47;;;;;;;;;;6214185;28;20077;-77
2022/09/18 04:18:45;;;;;;;2.70;2.22;;;;;;;;;;6201941;28;20639;-77
2022/09/18 04:21:47;;;;;;;4.22;2.25;;;;;;;;;;6213339;28;20169;-77
2022/09/18 04:24:49;;;;;;;3.00;2.10;;;;;;;;;;6197889;28;21578;-77
2022/09/18 04:27:51;;;;;;;3.35;2.33;;;;;;;;;;6208294;28;20419;-77
2022/09/18 04:30:54;;;;;;;3.85;2.30;;;;;;;;;;6199367;28;20050;-77
2022/09/18 04:33:56;;;;;;;4.63;2.20;;;;;;;;;;6220178;28;20060;-79
2022/09/18 04:36:58;;;;;;;4.07;2.67;;;;;;;;;;6217375;28;20042;-79
2022/09/18 04:40:06;;;;;;;2.78;2.53;;;;;;;;;;6233221;28;20049;-80
2022/09/18 04:43:11;;;;;;;3.05;2.40;;;;;;;;;;6211776;28;20050;-80
2022/09/18 04:46:14;;;;;;;5.57;2.42;;;;;;;;;;6230585;28;20042;-80
2022/09/18 04:49:17;;;;;;;4.15;2.40;;;;;;;;;;6221181;28;20054;-81
2022/09/18 04:52:19;;;;;;;4.65;2.42;;;;;;;;;;6190483;28;20045;-81
2022/09/18 04:55:21;;;;;;;4.38;2.70;;;;;;;;;;6214373;28;20124;-81
2022/09/18 04:58:23;;;;;;;3.38;2.58;;;;;;;;;;6226347;28;20050;-81
2022/09/18 05:01:32;;;;;;;5.95;3.85;;;;;;;;;;6235563;28;20050;-81
2022/09/18 05:04:40;;;;;;;4.35;2.92;;;;;;;;;;6201507;28;20041;-81
2022/09/18 05:07:59;;;;;;;4.47;2.90;;;;;;;;;;6233889;28;20080;-80
2022/09/18 05:11:03;;;;;;;3.90;2.90;;;;;;;;;;6212908;28;20554;-81
2022/09/18 05:14:08;;;;;;;6.13;3.10;;;;;;;;;;6199321;28;20066;-82
2022/09/18 05:17:10;;;;;;;4.35;2.63;;;;;;;;;;6219393;28;20057;-82
2022/09/18 05:20:15;;;;;;;3.80;2.45;;;;;;;;;;6237831;28;20048;-82
2022/09/18 05:23:17;;;;;;;6.07;3.08;;;;;;;;;;6236192;28;20452;-81
2022/09/18 05:26:19;;;;;;;4.90;2.45;;;;;;;;;;6220530;28;20045;-80
2022/09/18 05:29:21;;;;;;;4.57;3.25;;;;;;;;;;6209241;28;20069;-81
2022/09/18 05:32:24;;;;;;;8.60;2.90;;;;;;;;;;6223131;28;20053;-83
2022/09/18 05:35:29;;;;;;;5.35;2.55;;;;;;;;;;6227429;28;20061;-81
2022/09/18 05:38:32;;;;;;;4.45;2.50;;;;;;;;;;6228150;28;20069;-81
2022/09/18 05:41:35;;;;;;;6.82;3.15;;;;;;;;;;6202053;28;20053;-82
2022/09/18 05:44:37;;;;;;;3.60;2.70;;;;;;;;;;6197250;28;20050;-81
2022/09/18 05:47:58;;;;;;;5.38;2.70;;;;;;;;;;6227572;28;20396;-80
2022/09/18 05:51:01;;;;;;;4.50;2.53;;;;;;;;;;6216243;28;20056;-81
2022/09/18 05:54:04;;;;;;;4.32;2.85;;;;;;;;;;6229665;28;20037;-81
2022/09/18 05:57:13;;;;;;;3.75;2.55;;;;;;;;;;6209035;28;20078;-81
2022/09/18 06:00:15;;;;;;;3.95;2.50;;;;;;;;;;6225444;28;20065;-81
2022/09/18 06:03:20;;;;;;;2.92;2.38;;;;;;;;;;6234839;28;20050;-81
2022/09/18 06:06:28;;;;;;;3.58;2.47;;;;;;;;;;6215940;28;20064;-83
2022/09/18 06:09:30;;;;;;;4.53;2.65;;;;;;;;;;6225352;28;20554;-81
2022/09/18 06:12:33;;;;;;;3.90;2.38;;;;;;;;;;6240239;28;20103;-80
2022/09/18 06:15:35;;;;;;;2.78;2.17;;;;;;;;;;6197790;28;20056;-80
2022/09/18 06:18:37;;;;;;;3.65;2.17;;;;;;;;;;6221422;28;20058;-84
2022/09/18 06:21:40;;;;;;;3.58;2.40;;;;;;;;;;6201884;28;21578;-80
2022/09/18 06:24:44;;;;;;;4.68;2.45;;;;;;;;;;6235608;28;20048;-82
2022/09/18 06:27:57;;;;;;;2.72;2.03;;;;;;;;;;6226257;28;20041;-80
2022/09/18 06:31:01;;;;;;;2.15;1.70;;;;;;;;;;6225593;28;20192;-81
2022/09/18 06:34:11;;;;;;;3.42;1.70;;;;;;;;;;6197756;28;20058;-80
2022/09/18 06:37:14;;;;;;;2.35;1.65;;;;;;;;;;6231869;28;20038;-80
2022/09/18 06:40:16;;;;;;;1.92;1.50;;;;;;;;;;6217166;28;20048;-80
2022/09/18 06:43:36;;;;;;;1.75;1.55;;;;;;;;;;6217805;28;20080;-80
2022/09/18 06:46:48;;;;;;;1.50;1.30;;;;;;;;;;6198971;28;20185;-79
2022/09/18 06:49:58;;;;;;;2.05;1.30;;;;;;;;;;6196041;28;20041;-77
2022/09/18 06:53:03;;;;;;;3.60;1.30;;;;;;;;;;6191355;28;20049;-77
2022/09/18 06:56:14;;;;;;;1.77;1.40;;;;;;;;;;6219108;28;20042;-78
2022/09/18 06:59:16;;;;;;;1.67;1.00;;;;;;;;;;6220593;28;20468;-82
2022/09/18 07:02:18;;;;;;;1.38;1.00;;;;;;;;;;6221790;28;20121;-81
2022/09/18 07:05:32;;;;;;;1.05;0.90;;;;;;;;;;6224857;28;20045;-83
2022/09/18 07:08:34;;;;;;;1.02;0.93;;;;;;;;;;6216501;28;20922;-79
2022/09/18 07:11:46;;;;;;;1.00;0.90;;;;;;;;;;6204240;28;20045;-80
2022/09/18 07:14:50;;;;;;;1.40;1.13;;;;;;;;;;6228388;28;20099;-80
2022/09/18 07:17:57;;;;;;;1.10;1.00;;;;;;;;;;6216642;28;20111;-81
2022/09/18 07:21:00;;;;;;;0.82;0.80;;;;;;;;;;6184156;28;20047;-79
2022/09/18 07:24:07;;;;;;;2.40;1.00;;;;;;;;;;6219891;28;20055;-82
2022/09/18 07:27:09;;;;;;;3.10;0.90;;;;;;;;;;6205116;28;20049;-80
2022/09/18 07:30:27;;;;;;;1.08;0.85;;;;;;;;;;6230493;23;21362;-88
2022/09/18 07:33:49;;;;;;;2.15;1.05;;;;;;;;;;6197071;28;20112;-90
2022/09/18 07:39:41;;;;;;;2.33;0.85;;;;;;;;;;6301515;27;1424227;-84
2022/09/18 07:44:06;;;;;;;1.45;0.80;;;;;;;;;;7175560;22;20212;-93
2022/09/18 07:47:11;;;;;;;1.85;1.10;;;;;;;;;;6300429;28;20100;-91
2022/09/18 07:50:16;;;;;;;2.67;1.15;;;;;;;;;;6281508;22;20057;-82
2022/09/18 07:53:19;;;;;;;2.85;1.10;;;;;;;;;;6267774;28;20044;-82
2022/09/18 07:56:25;;;;;;;1.58;1.10;;;;;;;;;;6268891;28;20045;-83
2022/09/18 07:59:29;;;;;;;2.55;1.20;;;;;;;;;;6242553;28;20541;-82
2022/09/18 08:02:35;;;;;;;1.73;1.30;;;;;;;;;;6240503;28;20224;-83
2022/09/18 08:05:38;;;;;;;2.03;1.02;;;;;;;;;;6286294;28;20055;-82
2022/09/18 08:08:40;;;;;;;1.30;1.10;;;;;;;;;;6288424;28;20124;-82
2022/09/18 08:12:01;;;;;;;2.15;1.50;;;;;;;;;;6266703;28;20052;-82
2022/09/18 08:15:29;;;;;;;1.77;1.10;;;;;;;;;;6250557;28;20645;-82
2022/09/18 08:18:49;;;;;;;2.15;1.20;;;;;;;;;;6279064;28;20041;-82
2022/09/18 08:22:12;;;;;;;1.25;1.05;;;;;;;;;;6251327;28;20798;-81
2022/09/18 08:25:22;;;;;;;1.50;1.27;;;;;;;;;;6268226;28;20044;-81
2022/09/18 08:28:24;;;;;;;2.53;1.10;;;;;;;;;;6269610;28;20033;-81
2022/09/18 08:31:30;;;;;;;1.77;0.90;;;;;;;;;;6271204;28;20080;-81
2022/09/18 08:34:32;;;;;;;1.07;0.77;;;;;;;;;;6273967;28;20057;-81
2022/09/18 08:37:34;;;;;;;1.25;0.63;;;;;;;;;;6266449;28;20053;-82
2022/09/18 08:41:10;;;;;;;0.90;0.52;;;;;;;;;;6270284;28;20041;-82
2022/09/18 08:44:23;;;;;;;;;;;;;;;;;;6272369;28;20045;-82
2022/09/18 08:47:33;;;;;;;0.63;0.63;;;;;;;;;;6269042;28;19920;-83
2022/09/18 08:50:41;;;;;;;2.85;0.80;;;;;;;;;;6260863;28;20131;-83
2022/09/18 08:53:49;;;;;;;0.63;0.60;;;;;;;;;;6255232;28;20139;-84
2022/09/18 08:57:42;;;;;;;0.85;0.80;;;;;;;;;;6184839;28;20070;-83
2022/09/18 09:00:55;;;;;;;0.80;0.80;;;;;;;;;;6181401;28;20082;-83
2022/09/18 09:04:23;;;;;;;0.93;0.77;;;;;;;;;;6258629;28;20104;-82
2022/09/18 09:07:44;;;;;;;2.05;1.10;;;;;;;;;;6268776;28;20044;-82
2022/09/18 09:11:06;;;;;;;2.05;1.10;;;;;;;;;;6249017;28;20149;-85
2022/09/18 09:14:24;;;;;;;1.40;1.17;;;;;;;;;;6251110;28;20794;-82
2022/09/18 09:17:58;;;;;;;1.45;1.30;;;;;;;;;;6227119;28;20446;-82
2022/09/18 09:21:19;;;;;;;2.70;1.40;;;;;;;;;;6245332;28;20095;-82
2022/09/18 09:24:29;;;;;;;1.88;1.20;;;;;;;;;;6225176;28;20228;-81
2022/09/18 09:27:42;;;;;;;1.95;1.25;;;;;;;;;;6225157;28;20114;-82
2022/09/18 09:31:09;;;;;;;3.80;1.48;;;;;;;;;;6256966;28;20373;-84
2022/09/18 09:34:35;;;;;;;1.50;1.40;;;;;;;;;;6264051;28;20036;-84
2022/09/18 09:37:44;;;;;;;1.70;1.40;;;;;;;;;;6243831;28;20041;-84
2022/09/18 09:40:52;;;;;;;3.55;1.40;;;;;;;;;;6232829;28;20049;-83
2022/09/18 09:44:03;;;;;;;1.75;1.50;;;;;;;;;;6268923;28;20179;-83
2022/09/18 09:47:12;;;;;;;1.90;1.50;;;;;;;;;;6273950;28;20095;-84
2022/09/18 09:50:45;;;;;;;3.35;1.80;;;;;;;;;;6243121;28;20506;-84
2022/09/18 09:53:54;;;;;;;1.83;1.30;;;;;;;;;;6259903;28;20041;-83
2022/09/18 09:57:16;;;;;;;1.98;1.30;;;;;;;;;;6268879;28;20377;-84
2022/09/18 10:00:20;;;;;;;1.88;1.10;;;;;;;;;;6256482;28;20056;-84
2022/09/18 10:03:44;;;;;;;1.75;1.02;;;;;;;;;;6276020;28;20045;-84
2022/09/18 10:07:04;;;;;;;1.50;1.10;;;;;;;;;;6274892;28;20044;-83
2022/09/18 10:10:29;;;;;;;1.50;1.40;;;;;;;;;;6251422;28;20104;-84
2022/09/18 10:13:37;;;;;;;1.35;1.10;;;;;;;;;;6253474;28;20047;-83
2022/09/18 10:16:45;;;;;;;2.38;1.20;;;;;;;;;;6253410;28;20037;-83
2022/09/18 10:19:48;;;;;;;0.98;0.90;;;;;;;;;;6230014;28;20053;-83
2022/09/18 10:22:50;;;;;;;1.23;1.13;;;;;;;;;;6222362;28;20042;-84
2022/09/18 10:25:56;;;;;;;2.17;1.30;;;;;;;;;;6233346;28;20042;-84
2022/09/18 10:28:59;;;;;;;2.60;1.10;;;;;;;;;;6230756;28;20507;-83
2022/09/18 10:32:00;;;;;;;1.48;1.38;;;;;;;;;;6230291;28;20124;-83
2022/09/18 10:35:45;;;;;;;1.50;1.27;;;;;;;;;;6215010;28;20056;-83
2022/09/18 10:38:49;;;;;;;3.10;1.15;;;;;;;;;;6233676;28;20037;-83
2022/09/18 10:42:04;;;;;;;1.85;1.23;;;;;;;;;;6252200;28;20049;-82
2022/09/18 10:45:21;;;;;;;1.65;1.40;;;;;;;;;;6257613;28;20071;-83
2022/09/18 10:48:26;;;;;;;1.20;1.10;;;;;;;;;;6268712;28;20052;-83
2022/09/18 10:51:29;;;;;;;1.92;1.25;;;;;;;;;;6239696;28;20154;-84
2022/09/18 10:54:35;;;;;;;1.63;1.50;;;;;;;;;;6249819;28;20087;-83
2022/09/18 10:57:49;;;;;;;1.13;1.13;;;;;;;;;;6263397;28;20384;-83
2022/09/18 11:01:02;;;;;;;1.10;1.05;;;;;;;;;;6232051;28;20091;-83
2022/09/18 11:04:05;;;;;;;;;;;;;;;;;;6249513;28;20041;-83
2022/09/18 11:07:10;;;;;;;1.00;0.98;;;;;;;;;;6265408;28;19931;-83
2022/09/18 11:10:19;;;;;;;1.10;0.95;;;;;;;;;;6243751;28;20080;-81
2022/09/18 11:13:28;;;;;;;1.45;1.15;;;;;;;;;;6243870;28;20052;-81
2022/09/18 11:16:35;;;;;;;1.30;1.20;;;;;;;;;;6247791;28;20053;-81
2022/09/18 11:19:38;;;;;;;1.00;0.90;;;;;;;;;;6229622;28;20057;-81
2022/09/18 11:22:48;;;;;;;1.30;1.27;;;;;;;;;;6246349;28;20045;-81
2022/09/18 11:26:18;;;;;;;1.40;1.30;;;;;;;;;;6256587;28;20056;-81
2022/09/18 11:29:26;;;;;;;1.52;1.30;;;;;;;;;;6234017;28;20049;-81
2022/09/18 11:32:30;;;;;;;0.90;0.90;;;;;;;;;;6222648;28;20277;-81
2022/09/18 11:35:44;;;;;;;1.40;0.95;;;;;;;;;;6231025;28;20770;-83
2022/09/18 11:38:46;;;;;;;2.00;1.20;;;;;;;;;;6251766;28;20128;-84
2022/09/18 11:41:49;;;;;;;1.25;1.10;;;;;;;;;;6252647;28;20581;-84
2022/09/18 11:44:52;;;;;;;1.90;1.17;;;;;;;;;;6251914;28;20069;-85
2022/09/18 11:48:09;;;;;;;2.15;0.90;;;;;;;;;;6231192;28;20124;-84
2022/09/18 11:51:19;;;;;;;2.40;1.08;;;;;;;;;;6223314;28;20048;-84
2022/09/18 11:54:56;;;;;;;1.77;1.10;;;;;;;;;;6257636;28;20218;-85
2022/09/18 11:58:04;;;;;;;2.25;1.25;;;;;;;;;;6209579;28;20511;-84
2022/09/18 12:01:12;;;;;;;2.75;1.05;;;;;;;;;;6252793;28;20049;-83
2022/09/18 12:04:25;;;;;;;2.00;1.30;;;;;;;;;;6244206;28;20056;-84
2022/09/18 12:07:50;;;;;;;5.07;2.80;;;;;;;;;;6251553;28;20056;-84
2022/09/18 12:11:20;;;;;;;1.83;1.70;;;;;;;;;;6243394;28;20037;-84
2022/09/18 12:14:50;;;;;;;4.05;1.83;;;;;;;;;;6221325;28;20481;-83
2022/09/18 12:18:16;;;;;;;6.55;5.55;;;;;;;;;;6268901;28;20045;-84
2022/09/18 12:21:28;;;;;;;2.40;1.67;;;;;;;;;;6259317;28;20037;-84
2022/09/18 12:24:30;;;;;;;2.35;1.38;;;;;;;;;;6256688;28;20072;-84
2022/09/18 12:27:40;;;;;;;2.35;1.23;;;;;;;;;;6273385;28;20102;-83
2022/09/18 12:31:11;;;;;;;1.80;1.30;;;;;;;;;;6257557;28;20261;-83
2022/09/18 12:34:15;;;;;;;2.17;1.40;;;;;;;;;;6255492;28;20431;-83
2022/09/18 12:37:38;;;;;;;2.08;1.10;;;;;;;;;;6252238;28;20546;-82
2022/09/18 12:40:50;;;;;;;3.93;1.20;;;;;;;;;;6242433;28;20061;-82
2022/09/18 12:44:20;;;;;;;2.88;1.30;;;;;;;;;;6250797;28;20467;-82
2022/09/18 12:47:49;;;;;;;1.30;1.20;;;;;;;;;;6268539;28;20036;-82
2022/09/18 12:51:06;;;;;;;1.10;1.00;;;;;;;;;;6246911;28;20049;-82
2022/09/18 12:54:47;;;;;;;1.70;1.15;;;;;;;;;;6267011;28;20554;-82
2022/09/18 12:58:05;;;;;;;1.20;1.10;;;;;;;;;;6236635;28;20055;-82
2022/09/18 13:01:34;;;;;;;1.90;1.10;;;;;;;;;;6249102;28;20049;-82
2022/09/18 13:04:44;;;;;;;2.67;1.00;;;;;;;;;;6242710;28;20048;-83
2022/09/18 13:08:00;;;;;;;1.30;1.20;;;;;;;;;;6259757;28;20032;-83
2022/09/18 13:11:12;;;;;;;1.48;1.10;;;;;;;;;;6264477;28;20473;-82
2022/09/18 13:14:46;;;;;;;1.52;1.02;;;;;;;;;;6245374;28;20140;-82
2022/09/18 13:17:51;;;;;;;;;;;;;;;;;;6233545;28;20055;-82
2022/09/18 13:20:56;;;;;;;2.60;1.00;;;;;;;;;;6251219;28;20279;-81
2022/09/18 13:23:59;;;;;;;2.28;1.10;;;;;;;;;;6249974;28;20049;-82
2022/09/18 13:27:05;;;;;;;2.13;1.20;;;;;;;;;;6250190;28;20063;-83
2022/09/18 13:30:21;;;;;;;1.88;1.20;;;;;;;;;;6249837;28;20052;-83
2022/09/18 13:33:25;;;;;;;1.10;1.00;;;;;;;;;;6253155;28;20041;-82
2022/09/18 13:36:39;;;;;;;0.80;0.80;;;;;;;;;;6250648;28;20573;-82
2022/09/18 13:39:47;;;;;;;;;;;;;;;;;;6263225;28;20183;-82
2022/09/18 13:43:28;;;;;;;1.80;1.20;;;;;;;;;;6252028;28;19960;-83
2022/09/18 13:46:39;;;;;;;1.10;1.00;;;;;;;;;;6251353;28;20060;-83
2022/09/18 13:49:55;;;;;;;1.20;1.10;;;;;;;;;;6265509;28;20040;-82
2022/09/18 13:52:59;;;;;;;1.40;1.30;;;;;;;;;;6258656;28;20044;-82
2022/09/18 13:56:02;;;;;;;2.03;0.90;;;;;;;;;;6268212;28;20122;-83
2022/09/18 13:59:19;;;;;;;0.50;0.50;;;;;;;;;;6252792;28;20037;-83
2022/09/18 14:02:37;;;;;;;1.67;0.40;;;;;;;;;;6272868;28;20426;-82
2022/09/18 14:05:40;;;;;;;1.35;0.35;;;;;;;;;;6250942;28;20060;-82
2022/09/18 14:08:42;;;;;;;0.65;0.32;;;;;;;;;;6253749;28;20059;-82
2022/09/18 14:11:44;;;;;;;0.68;0.40;;;;;;;;;;6231173;28;20049;-83
2022/09/18 14:15:01;;;;;;;2.72;0.70;;;;;;;;;;6232623;28;20156;-82
2022/09/18 14:18:13;;;;;;;0.90;0.50;;;;;;;;;;6258830;28;20051;-82
2022/09/18 14:21:17;;;;;;;2.05;0.52;;;;;;;;;;6236125;28;20053;-83
2022/09/18 14:24:34;;;;;;;2.42;1.20;;;;;;;;;;6230671;28;20113;-83
2022/09/18 14:27:56;;;;;;;1.23;0.80;;;;;;;;;;6247808;28;20193;-83
2022/09/18 14:31:16;;;;;;;2.90;2.05;;;;;;;;;;6255400;28;20108;-83
2022/09/18 14:34:38;;;;;;;2.63;1.00;;;;;;;;;;6270841;28;20056;-85
2022/09/18 14:37:39;;;;;;;1.27;0.75;;;;;;;;;;6247122;28;20048;-84
2022/09/18 14:40:48;;;;;;;1.05;0.82;;;;;;;;;;6256241;28;20314;-83
2022/09/18 14:44:01;;;;;;;1.42;1.05;;;;;;;;;;6245086;28;20107;-82
2022/09/18 14:47:07;;;;;;;2.08;0.90;;;;;;;;;;6263174;28;20110;-83
2022/09/18 14:50:25;;;;;;;1.20;0.85;;;;;;;;;;6270095;28;20045;-82
2022/09/18 14:53:28;;;;;;;2.63;0.80;;;;;;;;;;6269509;28;20127;-82
2022/09/18 14:56:33;;;;;;;1.80;0.95;;;;;;;;;;6254207;28;20055;-81
2022/09/18 14:59:35;;;;;;;0.90;0.73;;;;;;;;;;6268322;28;20051;-82
2022/09/18 15:02:36;;;;;;;2.42;0.75;;;;;;;;;;6251131;28;20044;-83
2022/09/18 15:05:38;;;;;;;1.75;0.75;;;;;;;;;;6251306;28;20140;-83
2022/09/18 15:08:42;;;;;;;1.27;0.68;;;;;;;;;;6248917;28;20098;-82
2022/09/18 15:11:46;;;;;;;3.22;0.90;;;;;;;;;;6251777;28;20041;-82
2022/09/18 15:15:26;;;;;;;2.25;1.00;;;;;;;;;;6250747;28;20056;-83
2022/09/18 15:18:36;;;;;;;3.03;0.80;;;;;;;;;;6230568;28;20125;-83
2022/09/18 15:21:45;;;;;;;0.60;0.50;;;;;;;;;;6244613;28;20045;-82
2022/09/18 15:24:48;;;;;;;1.05;0.70;;;;;;;;;;6248930;28;20069;-83
2022/09/18 15:27:51;;;;;;;2.22;0.95;;;;;;;;;;6263746;28;20048;-83
2022/09/18 15:31:07;;;;;;;1.65;0.80;;;;;;;;;;6253620;28;20131;-83
2022/09/18 15:34:22;;;;;;;0.70;0.70;;;;;;;;;;6252433;28;20056;-83
2022/09/18 15:37:26;;;;;;;0.60;0.60;;;;;;;;;;6256443;28;20045;-83
2022/09/18 15:40:37;;;;;;;1.95;0.68;;;;;;;;;;6254894;28;20212;-83
2022/09/18 15:43:39;;;;;;;1.13;0.70;;;;;;;;;;6213599;28;20126;-83
2022/09/18 15:46:41;;;;;;;1.00;0.70;;;;;;;;;;6246059;28;20101;-85
2022/09/18 15:49:43;;;;;;;0.80;0.68;;;;;;;;;;6221613;28;20132;-84
2022/09/18 15:52:51;;;;;;;0.70;0.70;;;;;;;;;;6253605;28;20211;-83
2022/09/18 15:55:59;;;;;;;0.80;0.60;;;;;;;;;;6231880;28;20202;-84
2022/09/18 15:59:04;;;;;;;1.15;0.88;;;;;;;;;;6239190;28;20555;-84
2022/09/18 16:02:33;;;;;;;1.73;0.90;;;;;;;;;;6250182;28;20569;-84
2022/09/18 16:05:36;;;;;;;0.65;0.65;;;;;;;;;;6221915;28;20178;-85
2022/09/18 16:08:39;;;;;;;1.77;0.73;;;;;;;;;;6233593;28;20155;-83
2022/09/18 16:11:44;;;;;;;1.75;0.80;;;;;;;;;;6266392;28;20145;-84
2022/09/18 16:14:58;;;;;;;0.85;0.80;;;;;;;;;;6260167;28;20507;-82
2022/09/18 16:18:22;;;;;;;1.70;1.00;;;;;;;;;;6255588;28;20108;-82
2022/09/18 16:21:27;;;;;;;0.50;0.40;;;;;;;;;;6255819;28;20040;-82
2022/09/18 16:24:29;;;;;;;2.10;0.30;;;;;;;;;;6235120;28;20140;-83
2022/09/18 16:27:32;;;;;;;1.33;0.40;;;;;;;;;;6234845;28;20129;-83
2022/09/18 16:30:36;;;;;;;0.40;0.40;;;;;;;;;;6256467;28;20032;-83
2022/09/18 16:34:00;;;;;;;1.38;0.50;;;;;;;;;;6256859;28;20052;-83
2022/09/18 16:37:07;;;;;;;1.88;0.60;;;;;;;;;;6247896;28;20049;-82
2022/09/18 16:40:18;;;;;;;2.42;1.13;;;;;;;;;;6256717;28;20605;-83
2022/09/18 16:43:26;;;;;;;5.15;1.88;;;;;;;;;;6256494;28;20059;-83
2022/09/18 16:46:32;;;;;;;5.47;1.50;;;;;;;;;;6254823;28;20144;-84
2022/09/18 16:49:41;;;;;;;0.50;0.40;;;;;;;;;;6232251;28;20037;-83
2022/09/18 16:52:43;;;;;;;2.53;0.88;;;;;;;;;;6256411;28;20045;-83
2022/09/18 16:55:50;;;;;;;0.50;0.50;;;;;;;;;;6253723;28;21537;-83
2022/09/18 16:58:52;;;;;;;1.95;0.80;;;;;;;;;;6256954;28;20253;-81
2022/09/18 17:01:55;;;;;;;1.83;1.20;;;;;;;;;;6252172;28;20189;-83
2022/09/18 17:05:06;;;;;;;1.23;0.50;;;;;;;;;;6243118;28;20463;-83
2022/09/18 17:08:08;;;;;;;1.10;1.00;;;;;;;;;;6257583;28;20124;-83
2022/09/18 17:11:09;;;;;;;1.98;1.70;;;;;;;;;;6237500;28;20040;-83
2022/09/18 17:14:11;;;;;;;4.00;2.58;;;;;;;;;;6255241;28;21312;-83
2022/09/18 17:17:12;;;;;;;3.83;3.08;;;;;;;;;;6261391;28;20073;-83
2022/09/18 17:20:16;;;;;;;2.28;1.48;;;;;;;;;;6275531;28;20048;-83
2022/09/18 17:23:18;;;;;;;1.23;1.13;;;;;;;;;;6254004;28;20044;-83
2022/09/18 17:26:21;;;;;;;1.30;1.02;;;;;;;;;;6254851;28;20610;-83
2022/09/18 17:29:23;;;;;;;0.70;0.70;;;;;;;;;;6245331;28;20072;-82
2022/09/18 17:32:25;;;;;;;1.45;0.63;;;;;;;;;;6259069;28;20131;-82
2022/09/18 17:35:27;;;;;;;0.95;0.70;;;;;;;;;;6254110;28;20048;-83
2022/09/18 17:38:28;;;;;;;1.17;0.90;;;;;;;;;;6254694;28;20049;-82
2022/09/18 17:41:31;;;;;;;1.15;0.60;;;;;;;;;;6256616;28;20211;-82
2022/09/18 17:44:34;;;;;;;1.58;0.70;;;;;;;;;;6254799;28;20044;-85
2022/09/18 17:47:35;;;;;;;0.70;0.70;;;;;;;;;;6257749;28;20061;-83
2022/09/18 17:50:37;;;;;;;1.25;0.70;;;;;;;;;;6239709;28;20351;-82
2022/09/18 17:53:41;;;;;;;1.63;0.70;;;;;;;;;;6253676;28;20041;-83
2022/09/18 17:56:42;;;;;;;1.10;0.80;;;;;;;;;;6257114;28;20508;-82
2022/09/18 17:59:44;;;;;;;1.90;0.70;;;;;;;;;;6236326;28;20163;-82
2022/09/18 18:02:46;;;;;;;1.02;0.93;;;;;;;;;;6225732;28;20087;-82
2022/09/18 18:05:59;;;;;;;3.47;1.10;;;;;;;;;;6257165;28;20132;-82
2022/09/18 18:09:04;;;;;;;1.75;1.20;;;;;;;;;;6272146;28;20049;-82
2022/09/18 18:12:08;;;;;;;2.75;1.10;;;;;;;;;;6218696;28;20045;-82
2022/09/18 18:15:10;;;;;;;1.50;1.20;;;;;;;;;;6253862;28;20049;-82
2022/09/18 18:18:12;;;;;;;2.45;0.90;;;;;;;;;;6252693;28;20103;-83
2022/09/18 18:21:14;;;;;;;1.88;0.85;;;;;;;;;;6246927;28;20042;-82
2022/09/18 18:24:17;;;;;;;1.42;0.90;;;;;;;;;;6244242;28;20070;-82
2022/09/18 18:27:20;;;;;;;0.95;0.88;;;;;;;;;;6248868;28;20076;-83
2022/09/18 18:30:23;;;;;;;1.67;0.80;;;;;;;;;;6249538;28;20052;-82
2022/09/18 18:33:24;;;;;;;2.65;0.82;;;;;;;;;;6245213;28;20815;-82
2022/09/18 18:36:28;;;;;;;2.35;0.93;;;;;;;;;;6246903;28;20053;-83
2022/09/18 18:39:30;;;;;;;1.95;0.73;;;;;;;;;;6239938;28;20139;-83
2022/09/18 18:42:32;;;;;;;0.95;0.50;;;;;;;;;;6261709;28;20045;-84
2022/09/18 18:45:36;;;;;;;2.35;0.73;;;;;;;;;;6249978;28;20534;-84
2022/09/18 18:48:39;;;;;;;1.30;0.57;;;;;;;;;;6252490;28;20603;-84
2022/09/18 18:51:44;;;;;;;0.88;0.50;;;;;;;;;;6253432;28;20047;-83
2022/09/18 18:54:46;;;;;;;1.63;0.73;;;;;;;;;;6259851;28;20334;-83
2022/09/18 18:57:47;;;;;;;0.70;0.50;;;;;;;;;;6249767;28;20052;-83
2022/09/18 19:00:49;;;;;;;2.15;0.50;;;;;;;;;;6250091;28;20047;-84
2022/09/18 19:03:54;;;;;;;0.98;0.50;;;;;;;;;;6231687;28;20059;-83